Capable — ZDKT8 — position and weather

sailwx.info

Track history (hours):
 
Tides and Currents Weather Stations Pressure Air Temp Water Temp Dewpoint Dewpoint Depression Visibility Wind Speed Wind Dir Waves Ship Positions

Capable

Last reported at 2015-Jan-29 11:28 UTC. Time now 2015-Mar-27 17:23 UTC.
Position N 38°28' W 008°48'.
Warning: this ship's position is 57 days out of date.

Length 38 m; draft 4 m.

Type: Tug. MMSI: 236111806.

Date/timePositionNaut miles runAvg speedWind from/ knotsBaromVisibWave heightAir tempDewpointWater temp
2015-Jan-29 11:28N 38°28' W 008°48'0 0.0
2015-Jan-29 10:28N 38°28' W 008°48'0 0.0
2015-Jan-29 09:31N 38°28' W 008°48'0 0.0
2015-Jan-28 19:19N 38°28' W 008°48'0 0.0
2015-Jan-28 17:31N 38°28' W 008°48'0 0.0
2015-Jan-28 16:09N 38°28' W 008°48'0 0.0
2015-Jan-28 15:26N 38°28' W 008°48'0 0.0
2015-Jan-28 09:30N 38°28' W 008°48'4 3.5
2015-Jan-28 08:28N 38°29' W 008°52'7 7.9
2015-Jan-28 07:33N 38°25' W 009°00'4 4.3
2015-Jan-28 06:32N 38°21' W 009°02'5 5.5
2015-Jan-28 05:33N 38°16' W 009°03'6 5.6
2015-Jan-28 04:33N 38°10' W 009°05'6 5.6
2015-Jan-28 03:33N 38°05' W 009°06'6 6.2
2015-Jan-28 02:33N 37°59' W 009°08'8 7.5
2015-Jan-28 01:33N 37°51' W 009°09'7 7.4
2015-Jan-28 00:33N 37°44' W 009°11'8 7.4
2015-Jan-27 23:31N 37°37' W 009°12'22 7.2
2015-Jan-27 20:24N 37°14' W 009°17'  
Track history (hours):
 
Tides and Currents Weather Stations Pressure Air Temp Water Temp Dewpoint Dewpoint Depression Visibility Wind Speed Wind Dir Waves Ship Positions

Capable

Last reported at 2015-Jan-29 11:28 UTC. Time now 2015-Mar-27 17:23 UTC.
Position N 38°28' W 008°48'.
Warning: this ship's position is 57 days out of date.

Length 38 m; draft 4 m.

Type: Tug. MMSI: 236111806.

Date/timePositionNaut miles runAvg speedWind from/ knotsBaromVisibWave heightAir tempDewpointWater temp
2015-Jan-29 11:28N 38°28' W 008°48'0 0.0
2015-Jan-29 10:28N 38°28' W 008°48'0 0.0
2015-Jan-29 09:31N 38°28' W 008°48'0 0.0
2015-Jan-28 19:19N 38°28' W 008°48'0 0.0
2015-Jan-28 17:31N 38°28' W 008°48'0 0.0
2015-Jan-28 16:09N 38°28' W 008°48'0 0.0
2015-Jan-28 15:26N 38°28' W 008°48'0 0.0
2015-Jan-28 09:30N 38°28' W 008°48'4 3.5
2015-Jan-28 08:28N 38°29' W 008°52'7 7.9
2015-Jan-28 07:33N 38°25' W 009°00'4 4.3
2015-Jan-28 06:32N 38°21' W 009°02'5 5.5
2015-Jan-28 05:33N 38°16' W 009°03'6 5.6
2015-Jan-28 04:33N 38°10' W 009°05'6 5.6
2015-Jan-28 03:33N 38°05' W 009°06'6 6.2
2015-Jan-28 02:33N 37°59' W 009°08'8 7.5
2015-Jan-28 01:33N 37°51' W 009°09'7 7.4
2015-Jan-28 00:33N 37°44' W 009°11'8 7.4
2015-Jan-27 23:31N 37°37' W 009°12'22 7.2
2015-Jan-27 20:24N 37°14' W 009°17'  

Dump ship's entire track history